Skip Navigation LinksHome page > Weather > Current weather Skip Navigation Links

Current Weather

Indira Gandhi Intl Apt, New Delhi, India

For information only: do not use for flight planning or navigation.
Latest weather
Observation time Monday, July 6, 2015 11:00 PM IST
Local time Monday, July 6, 2015 11:36 PM IST
Flight conditions Instrument Meteorological Conditions
Winds
Wind direction Southeast (140°)
Wind speed 6 mph
Visibility 1.6 mi.
Present weather light rain
Sky condition
Ceiling 8,000 ft. broken clouds
Cloud layer scattered clouds 3,000 ft.
Cloud layer few clouds with cumulonimbus 3,500 ft.
Cloud layer broken clouds 8,000 ft.
Temperature 79°F
Dewpoint 75°F
Altimeter 29.53 in.Hg
Derived measurements
Relative humidity 89%
Heat index 79°F
Density altitude 2884 ft.
METAR VIDP 061730Z 14005KT 2500 -RA SCT030 FEW035CB BKN080 26/24 Q1000 TEMPO 30020KT 1500 TSRA

Settings

Location code

InnerDrive.Weather 4.0.5567.0 Release CLR 4.0.30319.34014
Copyright ©2015 Inner Drive Technology. All rights reserved. Portions Copyright ©1986-2015 David Braverman.

Find weather

Site navigation


Skip Navigation Links

Place info

Page info

PayPal - The safer, easier way to pay online!

Return home.

Copyright ©2015 Inner Drive Technology. Purveyors of fine, hand-crafted computer software. Page printed 2015-07-06T18:06:14 UTC.